Time;durP1;ratioP1;P1;durP2;ratioP2;P2;SDS_P1;SDS_P2;PMS_P1;PMS_P2;Temp;Humidity;BMP_temperature;BMP_pressure;BME280_temperature;BME280_humidity;BME280_pressure;Samples;Min_cycle;Max_cycle;Signal;HPM_P1;HPM_P2
2023/06/05 00:01:13;;;;;;;7.20;3.63;;;;;;;;;;10507727;28;20128;-75
2023/06/05 00:06:15;;;;;;;8.82;3.78;;;;;;;;;;10510483;28;20048;-75
2023/06/05 00:11:18;;;;;;;7.28;3.95;;;;;;;;;;10503916;28;20107;-76
2023/06/05 00:16:22;;;;;;;9.27;4.17;;;;;;;;;;10509221;28;20068;-76
2023/06/05 00:21:25;;;;;;;7.65;3.65;;;;;;;;;;10498722;28;20033;-77
2023/06/05 00:26:28;;;;;;;8.37;4.03;;;;;;;;;;10505147;28;20051;-76
2023/06/05 00:31:32;;;;;;;9.63;4.00;;;;;;;;;;10503387;28;20302;-76
2023/06/05 00:36:36;;;;;;;9.63;4.13;;;;;;;;;;10508329;28;20095;-74
2023/06/05 00:41:41;;;;;;;10.02;4.45;;;;;;;;;;10513470;28;20108;-76
2023/06/05 00:46:46;;;;;;;8.02;4.32;;;;;;;;;;10498916;28;20163;-75
2023/06/05 00:51:50;;;;;;;7.28;4.00;;;;;;;;;;10504033;28;20047;-75
2023/06/05 00:56:53;;;;;;;9.65;4.43;;;;;;;;;;10512969;28;20064;-75
2023/06/05 01:01:57;;;;;;;11.52;4.88;;;;;;;;;;10519976;28;20121;-76
2023/06/05 01:07:00;;;;;;;9.95;4.75;;;;;;;;;;10510558;28;20309;-75
2023/06/05 01:12:06;;;;;;;10.32;5.32;;;;;;;;;;10512888;28;20058;-77
2023/06/05 01:17:10;;;;;;;15.82;5.53;;;;;;;;;;10507604;28;20036;-76
2023/06/05 01:22:13;;;;;;;14.52;5.70;;;;;;;;;;10515601;28;20051;-75
2023/06/05 01:27:19;;;;;;;9.10;5.50;;;;;;;;;;10511664;28;20060;-75
2023/06/05 01:32:25;;;;;;;12.45;5.40;;;;;;;;;;10517004;28;20151;-75
2023/06/05 01:37:28;;;;;;;9.98;5.90;;;;;;;;;;10509427;28;20047;-75
2023/06/05 01:42:32;;;;;;;10.82;6.13;;;;;;;;;;10514360;28;20367;-74
2023/06/05 01:47:35;;;;;;;11.93;5.20;;;;;;;;;;10508487;28;20125;-75
2023/06/05 01:52:39;;;;;;;13.48;6.38;;;;;;;;;;10510514;28;20068;-76
2023/06/05 01:57:43;;;;;;;10.18;5.25;;;;;;;;;;10510828;28;20271;-75
2023/06/05 02:02:47;;;;;;;10.05;5.55;;;;;;;;;;10514739;28;20052;-76
2023/06/05 02:07:53;;;;;;;14.68;6.32;;;;;;;;;;10507107;28;20046;-77
2023/06/05 02:12:57;;;;;;;13.27;5.93;;;;;;;;;;10507511;28;20025;-76
2023/06/05 02:18:00;;;;;;;14.57;6.50;;;;;;;;;;10508462;28;20067;-77
2023/06/05 02:23:04;;;;;;;13.40;6.60;;;;;;;;;;10514963;28;20051;-76
2023/06/05 02:28:09;;;;;;;14.23;6.32;;;;;;;;;;10511214;28;20158;-77
2023/06/05 02:33:12;;;;;;;9.55;5.57;;;;;;;;;;10516284;28;20040;-75
2023/06/05 02:38:15;;;;;;;10.90;6.55;;;;;;;;;;10515941;28;20051;-77
2023/06/05 02:43:20;;;;;;;13.37;6.93;;;;;;;;;;10511313;28;20132;-75
2023/06/05 02:48:22;;;;;;;11.23;6.00;;;;;;;;;;10509583;28;20072;-75
2023/06/05 02:53:25;;;;;;;15.20;6.83;;;;;;;;;;10511049;28;20063;-74
2023/06/05 02:58:29;;;;;;;12.07;6.17;;;;;;;;;;10505851;28;20416;-75
2023/06/05 03:03:32;;;;;;;14.85;6.20;;;;;;;;;;10507072;28;20067;-75
2023/06/05 03:08:35;;;;;;;12.20;6.30;;;;;;;;;;10506041;28;20044;-75
2023/06/05 03:13:39;;;;;;;10.87;6.10;;;;;;;;;;10509808;28;20060;-74
2023/06/05 03:18:42;;;;;;;13.98;5.85;;;;;;;;;;10513535;28;20131;-75
2023/06/05 03:23:44;;;;;;;12.32;6.65;;;;;;;;;;10512188;28;20049;-75
2023/06/05 03:28:49;;;;;;;12.32;6.30;;;;;;;;;;10514544;28;20054;-74
2023/06/05 03:33:52;;;;;;;13.55;6.22;;;;;;;;;;10505778;28;20036;-75
2023/06/05 03:38:54;;;;;;;11.38;6.00;;;;;;;;;;10514799;28;20101;-75
2023/06/05 03:43:59;;;;;;;11.70;6.27;;;;;;;;;;10508792;28;20036;-76
2023/06/05 03:49:05;;;;;;;11.27;5.78;;;;;;;;;;10506624;28;20048;-76
2023/06/05 03:54:08;;;;;;;11.30;6.03;;;;;;;;;;10508716;28;20044;-74
2023/06/05 03:59:18;;;;;;;11.35;6.15;;;;;;;;;;10508492;28;20044;-75
2023/06/05 04:04:21;;;;;;;14.90;6.80;;;;;;;;;;10504422;28;20056;-75
2023/06/05 04:09:24;;;;;;;13.03;7.27;;;;;;;;;;10506738;28;20090;-75
2023/06/05 04:14:28;;;;;;;13.60;7.50;;;;;;;;;;10504655;28;20068;-76
2023/06/05 04:19:31;;;;;;;11.93;6.55;;;;;;;;;;10504292;28;20099;-76
2023/06/05 04:24:33;;;;;;;13.38;6.95;;;;;;;;;;10510122;28;20052;-74
2023/06/05 04:29:37;;;;;;;12.77;7.35;;;;;;;;;;10509004;28;21319;-76
2023/06/05 04:34:40;;;;;;;14.38;6.90;;;;;;;;;;10512222;28;20099;-75
2023/06/05 04:39:43;;;;;;;12.05;6.25;;;;;;;;;;10506232;28;20085;-75
2023/06/05 04:44:54;;;;;;;12.30;6.57;;;;;;;;;;10495164;28;20044;-75
2023/06/05 04:49:58;;;;;;;13.20;6.20;;;;;;;;;;10504171;28;20083;-76
2023/06/05 04:55:02;;;;;;;13.85;6.70;;;;;;;;;;10506277;28;20040;-75
2023/06/05 05:00:07;;;;;;;11.23;5.95;;;;;;;;;;10501965;28;20040;-76
2023/06/05 05:05:13;;;;;;;12.85;6.40;;;;;;;;;;10508592;28;20067;-75
2023/06/05 05:10:15;;;;;;;11.60;6.75;;;;;;;;;;10508705;28;20088;-76
2023/06/05 05:15:20;;;;;;;17.10;6.28;;;;;;;;;;10505033;28;20669;-76
2023/06/05 05:20:22;;;;;;;12.07;5.82;;;;;;;;;;10499688;28;20067;-76
2023/06/05 05:25:25;;;;;;;12.47;6.30;;;;;;;;;;10504306;28;20037;-77
2023/06/05 05:30:30;;;;;;;11.13;6.13;;;;;;;;;;10502442;28;20044;-76
2023/06/05 05:35:32;;;;;;;13.07;6.47;;;;;;;;;;10514130;28;20044;-75
2023/06/05 05:40:35;;;;;;;15.40;7.07;;;;;;;;;;10513812;28;20048;-79
2023/06/05 05:45:40;;;;;;;11.80;6.63;;;;;;;;;;10513095;28;20115;-77
2023/06/05 05:50:43;;;;;;;15.60;6.75;;;;;;;;;;10511189;28;20101;-77
2023/06/05 05:55:46;;;;;;;12.73;6.10;;;;;;;;;;10513377;28;20040;-78
2023/06/05 06:00:52;;;;;;;10.90;5.78;;;;;;;;;;10514252;28;20131;-77
2023/06/05 06:05:56;;;;;;;15.70;8.13;;;;;;;;;;10511548;28;20110;-75
2023/06/05 06:10:59;;;;;;;10.90;6.47;;;;;;;;;;10507578;28;20045;-76
2023/06/05 06:16:06;;;;;;;14.52;6.97;;;;;;;;;;10505051;28;20102;-76
2023/06/05 06:21:09;;;;;;;12.55;6.60;;;;;;;;;;10512903;28;20047;-75
2023/06/05 06:26:14;;;;;;;;;;;;;;;;;;10502741;28;20044;-75
2023/06/05 06:31:18;;;;;;;12.60;6.22;;;;;;;;;;10512514;28;19927;-78
2023/06/05 06:36:22;;;;;;;13.25;6.53;;;;;;;;;;10509191;28;20067;-79
2023/06/05 06:41:26;;;;;;;11.25;6.07;;;;;;;;;;10509878;28;20051;-79
2023/06/05 06:46:30;;;;;;;13.18;6.70;;;;;;;;;;10512628;28;20078;-78
2023/06/05 06:51:33;;;;;;;11.25;5.60;;;;;;;;;;10510631;28;20051;-80
2023/06/05 06:56:36;;;;;;;13.23;6.10;;;;;;;;;;10507591;28;20124;-79
2023/06/05 07:01:40;;;;;;;;;;;;;;;;;;10508331;28;20069;-78
2023/06/05 07:06:44;;;;;;;12.35;5.47;;;;;;;;;;10511723;28;19987;-78
2023/06/05 07:11:47;;;;;;;13.15;5.85;;;;;;;;;;10500906;28;20044;-78
2023/06/05 07:16:55;;;;;;;11.32;5.68;;;;;;;;;;10531960;28;20049;-76
2023/06/05 07:21:59;;;;;;;10.52;5.90;;;;;;;;;;10488491;28;20075;-79
2023/06/05 07:27:03;;;;;;;13.48;6.43;;;;;;;;;;10492948;28;20069;-77
2023/06/05 07:32:07;;;;;;;13.60;6.43;;;;;;;;;;10493602;28;20036;-78
2023/06/05 07:37:11;;;;;;;8.73;5.32;;;;;;;;;;10511535;28;20040;-78
2023/06/05 07:42:13;;;;;;;11.65;6.25;;;;;;;;;;10504374;28;20040;-77
2023/06/05 07:47:18;;;;;;;12.48;5.97;;;;;;;;;;10504244;28;20032;-77
2023/06/05 07:52:20;;;;;;;;;;;;;;;;;;10514028;28;20052;-77
2023/06/05 07:57:25;;;;;;;9.75;6.10;;;;;;;;;;10506205;28;19920;-77
2023/06/05 08:02:28;;;;;;;11.98;5.75;;;;;;;;;;10504783;28;20047;-76
2023/06/05 08:07:30;;;;;;;7.63;5.00;;;;;;;;;;10505934;28;20397;-76
2023/06/05 08:12:34;;;;;;;9.35;6.10;;;;;;;;;;10509622;28;20118;-76
2023/06/05 08:17:37;;;;;;;9.65;5.47;;;;;;;;;;10508511;28;20422;-76
2023/06/05 08:22:40;;;;;;;8.68;5.47;;;;;;;;;;10510291;28;20048;-76
2023/06/05 08:27:45;;;;;;;9.30;5.55;;;;;;;;;;10505765;28;20113;-77
2023/06/05 08:32:48;;;;;;;10.05;5.72;;;;;;;;;;10505580;28;20041;-77
2023/06/05 08:37:51;;;;;;;8.52;5.60;;;;;;;;;;10507914;28;20139;-77
2023/06/05 08:42:55;;;;;;;7.85;5.25;;;;;;;;;;10505079;28;20087;-76
2023/06/05 08:48:00;;;;;;;7.53;5.60;;;;;;;;;;10504079;28;20100;-77
2023/06/05 08:53:03;;;;;;;7.22;5.40;;;;;;;;;;10502999;28;20052;-77
2023/06/05 08:58:07;;;;;;;9.63;6.10;;;;;;;;;;10504354;28;20080;-77
2023/06/05 09:03:12;;;;;;;8.48;5.47;;;;;;;;;;10507857;28;20059;-78
2023/06/05 09:08:16;;;;;;;10.00;6.55;;;;;;;;;;10545586;28;20140;-78
2023/06/05 09:13:22;;;;;;;9.10;5.75;;;;;;;;;;10551755;28;20095;-78
2023/06/05 09:18:25;;;;;;;9.70;6.63;;;;;;;;;;10559419;28;20091;-76
2023/06/05 09:23:28;;;;;;;8.80;5.78;;;;;;;;;;10559668;28;20132;-77
2023/06/05 09:28:33;;;;;;;11.25;5.88;;;;;;;;;;10555480;28;20036;-77
2023/06/05 09:33:37;;;;;;;8.18;5.28;;;;;;;;;;10552282;28;20062;-77
2023/06/05 09:38:40;;;;;;;12.90;6.47;;;;;;;;;;10554266;28;20560;-77
2023/06/05 09:43:46;;;;;;;8.25;5.50;;;;;;;;;;10557194;28;20044;-76
2023/06/05 09:48:53;;;;;;;8.23;5.60;;;;;;;;;;10555979;28;20097;-77
2023/06/05 09:53:58;;;;;;;7.47;5.40;;;;;;;;;;10555931;28;20099;-76
2023/06/05 09:59:04;;;;;;;6.50;5.10;;;;;;;;;;10560391;28;20127;-77
2023/06/05 10:04:07;;;;;;;13.05;5.75;;;;;;;;;;10554720;28;20353;-77
2023/06/05 10:09:11;;;;;;;13.07;9.23;;;;;;;;;;10556211;28;20377;-77
2023/06/05 10:14:16;;;;;;;7.97;4.93;;;;;;;;;;10556031;28;20040;-76
2023/06/05 10:19:19;;;;;;;8.27;4.90;;;;;;;;;;10549427;28;20144;-76
2023/06/05 10:24:24;;;;;;;8.88;5.60;;;;;;;;;;10557137;28;20036;-77
2023/06/05 10:29:45;;;;;;;7.32;5.45;;;;;;;;;;10541046;28;20154;-77
2023/06/05 10:34:51;;;;;;;10.38;5.63;;;;;;;;;;10556975;28;20401;-78
2023/06/05 10:39:54;;;;;;;7.07;5.13;;;;;;;;;;10556085;28;20123;-76
2023/06/05 10:44:57;;;;;;;9.23;5.13;;;;;;;;;;10553590;28;20063;-76
2023/06/05 10:50:19;;;;;;;9.90;5.40;;;;;;;;;;10553422;28;20047;-76
2023/06/05 10:55:24;;;;;;;6.80;4.55;;;;;;;;;;10549829;28;21372;-75
2023/06/05 11:00:27;;;;;;;9.10;4.60;;;;;;;;;;10550820;28;20040;-77
2023/06/05 11:05:30;;;;;;;6.35;4.70;;;;;;;;;;10556910;28;20051;-76
2023/06/05 11:10:35;;;;;;;7.88;5.38;;;;;;;;;;10532184;28;20597;-76
2023/06/05 11:15:39;;;;;;;7.22;4.22;;;;;;;;;;10548617;28;20028;-76
2023/06/05 11:20:51;;;;;;;9.73;4.80;;;;;;;;;;10532257;28;20119;-76
2023/06/05 11:25:57;;;;;;;6.45;4.50;;;;;;;;;;10535627;28;20035;-76
2023/06/05 11:31:00;;;;;;;6.85;4.50;;;;;;;;;;10549696;28;20236;-76
2023/06/05 11:36:05;;;;;;;7.63;4.35;;;;;;;;;;10550554;28;20097;-77
2023/06/05 11:41:09;;;;;;;7.68;4.78;;;;;;;;;;10550944;28;20048;-77
2023/06/05 11:46:13;;;;;;;7.32;4.50;;;;;;;;;;10551926;28;20040;-76
2023/06/05 11:51:16;;;;;;;6.97;3.90;;;;;;;;;;10550568;28;20299;-76
2023/06/05 11:56:21;;;;;;;5.18;4.10;;;;;;;;;;10549485;28;20063;-76
2023/06/05 12:01:31;;;;;;;6.68;4.00;;;;;;;;;;10552626;28;20066;-77
2023/06/05 12:06:37;;;;;;;6.85;4.32;;;;;;;;;;10550310;28;20131;-77
2023/06/05 12:11:44;;;;;;;6.72;4.30;;;;;;;;;;10545960;28;20991;-76
2023/06/05 12:16:46;;;;;;;6.55;4.28;;;;;;;;;;10551331;28;20412;-76
2023/06/05 12:21:50;;;;;;;6.72;3.78;;;;;;;;;;10547870;28;20070;-76
2023/06/05 12:26:55;;;;;;;7.43;4.00;;;;;;;;;;10549158;28;20055;-76
2023/06/05 12:31:58;;;;;;;5.53;3.88;;;;;;;;;;10550236;28;20044;-76
2023/06/05 12:37:02;;;;;;;8.20;4.35;;;;;;;;;;10550040;28;20051;-76
2023/06/05 12:42:06;;;;;;;6.78;4.13;;;;;;;;;;10551969;28;20055;-76
2023/06/05 12:47:09;;;;;;;8.10;4.03;;;;;;;;;;10551635;28;20058;-76
2023/06/05 12:52:12;;;;;;;8.52;4.35;;;;;;;;;;10554987;28;20472;-77
2023/06/05 12:57:20;;;;;;;6.22;3.85;;;;;;;;;;10559622;28;20044;-76
2023/06/05 13:02:23;;;;;;;7.00;4.43;;;;;;;;;;10561280;28;20169;-76
2023/06/05 13:07:27;;;;;;;6.43;3.22;;;;;;;;;;10555388;28;20085;-77
2023/06/05 13:12:31;;;;;;;7.13;4.07;;;;;;;;;;10556461;28;20052;-76
2023/06/05 13:17:35;;;;;;;6.53;3.83;;;;;;;;;;10554474;28;20036;-76
2023/06/05 13:22:38;;;;;;;6.35;3.40;;;;;;;;;;10562180;28;20040;-77
2023/06/05 13:27:43;;;;;;;6.53;3.63;;;;;;;;;;10537596;28;20028;-76
2023/06/05 13:32:46;;;;;;;6.80;3.78;;;;;;;;;;10557119;28;20211;-76
2023/06/05 13:37:50;;;;;;;6.30;3.42;;;;;;;;;;10557224;28;20036;-76
2023/06/05 13:42:54;;;;;;;6.75;3.78;;;;;;;;;;10556223;28;20040;-77
2023/06/05 13:47:57;;;;;;;3.88;3.15;;;;;;;;;;10551010;28;20451;-75
2023/06/05 13:53:00;;;;;;;5.05;3.28;;;;;;;;;;10555089;28;20036;-76
2023/06/05 13:58:04;;;;;;;3.88;2.75;;;;;;;;;;10548158;28;20044;-77
2023/06/05 14:03:07;;;;;;;4.70;2.60;;;;;;;;;;10552398;28;20147;-76
2023/06/05 14:08:10;;;;;;;4.63;2.88;;;;;;;;;;10559245;28;20063;-76
2023/06/05 14:13:15;;;;;;;4.93;3.40;;;;;;;;;;10556988;28;20112;-77
2023/06/05 14:18:18;;;;;;;5.65;3.33;;;;;;;;;;10555319;28;20055;-76
2023/06/05 14:23:22;;;;;;;4.93;3.13;;;;;;;;;;10552047;28;20040;-76
2023/06/05 14:28:28;;;;;;;6.50;3.15;;;;;;;;;;10553262;28;20036;-77
2023/06/05 14:33:30;;;;;;;5.72;3.45;;;;;;;;;;10552681;28;20044;-75
2023/06/05 14:38:33;;;;;;;7.00;3.25;;;;;;;;;;10553062;28;20515;-76
2023/06/05 14:43:37;;;;;;;7.30;3.20;;;;;;;;;;10552566;28;20044;-76
2023/06/05 14:48:41;;;;;;;11.50;3.85;;;;;;;;;;10552041;28;20075;-77
2023/06/05 14:53:44;;;;;;;4.32;2.95;;;;;;;;;;10553006;28;20044;-77
2023/06/05 14:59:07;;;;;;;;;;;;;;;;;;;;;
2023/06/05 15:04:35;;;;;;;12.35;3.80;;;;;;;;;;10556301;28;20531;-76
2023/06/05 15:09:41;;;;;;;6.68;3.20;;;;;;;;;;10550607;28;20073;-76
2023/06/05 15:14:45;;;;;;;6.75;3.10;;;;;;;;;;10551879;28;20074;-76
2023/06/05 15:19:47;;;;;;;4.30;3.00;;;;;;;;;;10546376;28;20075;-75
2023/06/05 15:24:50;;;;;;;4.10;2.60;;;;;;;;;;10549492;28;20040;-77
2023/06/05 15:29:57;;;;;;;8.18;3.58;;;;;;;;;;10548684;28;20055;-76
2023/06/05 15:35:00;;;;;;;3.78;2.70;;;;;;;;;;10549940;28;20123;-77
2023/06/05 15:40:06;;;;;;;6.80;2.70;;;;;;;;;;10550698;28;20048;-75
2023/06/05 15:45:10;;;;;;;7.38;2.80;;;;;;;;;;10551605;28;20461;-76
2023/06/05 15:50:13;;;;;;;5.85;2.80;;;;;;;;;;10546721;28;20036;-76
2023/06/05 15:55:16;;;;;;;5.15;3.00;;;;;;;;;;10548037;28;20047;-75
2023/06/05 16:00:18;;;;;;;;;;;;;;;;;;10553382;28;20153;-75
2023/06/05 16:05:22;;;;;;;7.87;3.13;;;;;;;;;;10555074;28;19926;-74
2023/06/05 16:10:25;;;;;;;7.00;3.95;;;;;;;;;;10548820;28;20070;-76
2023/06/05 16:15:30;;;;;;;5.18;3.45;;;;;;;;;;10551659;28;20040;-76
2023/06/05 16:20:32;;;;;;;;;;;;;;;;;;10554362;28;20052;-75
2023/06/05 16:25:37;;;;;;;5.57;3.10;;;;;;;;;;10558417;28;19920;-78
2023/06/05 16:30:42;;;;;;;7.47;3.20;;;;;;;;;;10548020;28;20064;-77
2023/06/05 16:35:45;;;;;;;4.22;2.58;;;;;;;;;;10549508;28;20108;-77
2023/06/05 16:40:49;;;;;;;5.75;2.95;;;;;;;;;;10550657;28;20032;-76
2023/06/05 16:45:54;;;;;;;4.60;3.08;;;;;;;;;;10544952;28;20036;-76
2023/06/05 16:50:57;;;;;;;4.70;3.20;;;;;;;;;;10553957;28;20044;-76
2023/06/05 16:56:02;;;;;;;4.65;3.05;;;;;;;;;;10548297;28;20036;-76
2023/06/05 17:01:05;;;;;;;5.22;3.05;;;;;;;;;;10553338;28;20063;-77
2023/06/05 17:06:08;;;;;;;5.68;3.30;;;;;;;;;;10546721;28;20146;-77
2023/06/05 17:11:12;;;;;;;6.10;3.40;;;;;;;;;;10549879;28;20048;-77
2023/06/05 17:16:15;;;;;;;6.53;3.88;;;;;;;;;;10543313;28;20036;-78
2023/06/05 17:21:18;;;;;;;;;;;;;;;;;;10522425;28;20041;-76
2023/06/05 17:26:24;;;;;;;5.50;3.60;;;;;;;;;;10549628;28;19920;-77
2023/06/05 17:31:27;;;;;;;6.55;4.05;;;;;;;;;;10544214;28;20051;-76
2023/06/05 17:36:30;;;;;;;7.25;3.95;;;;;;;;;;10557521;28;20044;-77
2023/06/05 17:41:34;;;;;;;6.63;3.70;;;;;;;;;;10552340;28;20122;-79
2023/06/05 17:46:37;;;;;;;8.50;4.22;;;;;;;;;;10552978;28;20119;-78
2023/06/05 17:51:40;;;;;;;8.30;4.40;;;;;;;;;;10555393;28;20080;-78
2023/06/05 17:56:44;;;;;;;7.88;4.25;;;;;;;;;;10554474;28;20059;-77
2023/06/05 18:01:47;;;;;;;8.65;4.97;;;;;;;;;;10549880;28;20067;-78
2023/06/05 18:06:50;;;;;;;6.90;4.03;;;;;;;;;;10531968;28;20062;-77
2023/06/05 18:11:55;;;;;;;8.30;4.82;;;;;;;;;;10552836;28;20051;-77
2023/06/05 18:16:57;;;;;;;9.48;4.68;;;;;;;;;;10553047;28;20097;-78
2023/06/05 18:22:00;;;;;;;9.70;5.05;;;;;;;;;;10552965;28;20067;-80
2023/06/05 18:27:05;;;;;;;10.07;4.90;;;;;;;;;;10554840;28;20068;-78
2023/06/05 18:32:08;;;;;;;8.68;5.50;;;;;;;;;;10553196;28;20418;-77
2023/06/05 18:37:11;;;;;;;9.27;5.55;;;;;;;;;;10552793;28;20127;-79
2023/06/05 18:42:14;;;;;;;;;;;;;;;;;;10553205;28;20047;-76
2023/06/05 18:47:18;;;;;;;10.18;5.32;;;;;;;;;;10553419;28;19943;-78
2023/06/05 18:52:21;;;;;;;9.32;5.65;;;;;;;;;;10550282;28;20044;-78
2023/06/05 18:57:23;;;;;;;8.73;4.90;;;;;;;;;;10551415;28;20032;-76
2023/06/05 19:02:27;;;;;;;8.70;5.07;;;;;;;;;;10551198;28;20036;-78
2023/06/05 19:07:30;;;;;;;10.00;5.82;;;;;;;;;;10551388;28;20115;-77
2023/06/05 19:12:33;;;;;;;10.65;5.93;;;;;;;;;;10550746;28;20032;-78
2023/06/05 19:17:37;;;;;;;10.35;5.43;;;;;;;;;;10548926;28;20042;-78
2023/06/05 19:22:40;;;;;;;11.63;6.07;;;;;;;;;;10550942;28;20047;-77
2023/06/05 19:27:46;;;;;;;9.90;6.47;;;;;;;;;;10549528;28;20032;-76
2023/06/05 19:32:50;;;;;;;9.57;5.82;;;;;;;;;;10551689;28;20059;-75
2023/06/05 19:37:53;;;;;;;10.38;6.07;;;;;;;;;;10547316;28;20048;-76
2023/06/05 19:42:56;;;;;;;13.53;6.17;;;;;;;;;;10549297;28;20048;-76
2023/06/05 19:48:00;;;;;;;12.20;6.20;;;;;;;;;;10547147;28;20036;-77
2023/06/05 19:53:03;;;;;;;10.15;5.70;;;;;;;;;;10552780;28;20465;-76
2023/06/05 19:58:05;;;;;;;9.20;4.68;;;;;;;;;;10558196;28;20419;-78
2023/06/05 20:03:09;;;;;;;10.20;5.37;;;;;;;;;;10553011;28;20105;-77
2023/06/05 20:08:12;;;;;;;8.90;4.85;;;;;;;;;;10553441;28;20048;-77
2023/06/05 20:13:16;;;;;;;8.67;4.47;;;;;;;;;;10547319;28;20051;-76
2023/06/05 20:18:20;;;;;;;8.88;4.78;;;;;;;;;;10555577;28;20094;-76
2023/06/05 20:23:23;;;;;;;8.18;4.10;;;;;;;;;;10559678;28;20072;-76
2023/06/05 20:28:26;;;;;;;7.90;4.67;;;;;;;;;;10556633;28;20127;-77
2023/06/05 20:33:30;;;;;;;7.47;4.35;;;;;;;;;;10554191;28;20051;-77
2023/06/05 20:38:36;;;;;;;9.23;5.15;;;;;;;;;;10556754;28;20032;-76
2023/06/05 20:43:41;;;;;;;7.97;4.25;;;;;;;;;;10551812;28;20086;-77
2023/06/05 20:48:49;;;;;;;10.23;4.60;;;;;;;;;;10550696;28;20048;-78
2023/06/05 20:53:52;;;;;;;7.72;4.50;;;;;;;;;;10546059;28;20040;-76
2023/06/05 20:58:55;;;;;;;8.03;4.83;;;;;;;;;;10545802;28;20044;-78
2023/06/05 21:04:03;;;;;;;8.25;5.15;;;;;;;;;;10555696;28;20307;-77
2023/06/05 21:09:06;;;;;;;10.25;5.57;;;;;;;;;;10552074;28;20036;-77
2023/06/05 21:14:09;;;;;;;11.02;5.65;;;;;;;;;;10563486;28;20416;-75
2023/06/05 21:19:13;;;;;;;11.17;6.10;;;;;;;;;;10553588;28;20035;-76
2023/06/05 21:24:16;;;;;;;12.10;6.40;;;;;;;;;;10556946;28;20059;-74
2023/06/05 21:29:21;;;;;;;12.45;6.40;;;;;;;;;;10556980;28;20329;-76
2023/06/05 21:34:26;;;;;;;13.52;6.50;;;;;;;;;;10557515;28;20108;-75
2023/06/05 21:39:29;;;;;;;11.20;6.13;;;;;;;;;;10551502;28;20039;-77
2023/06/05 21:44:32;;;;;;;12.52;6.70;;;;;;;;;;10557870;28;20107;-75
2023/06/05 21:49:35;;;;;;;13.23;6.38;;;;;;;;;;10555707;28;20111;-75
2023/06/05 21:54:40;;;;;;;11.30;6.13;;;;;;;;;;10552989;28;20047;-77
2023/06/05 21:59:43;;;;;;;16.05;7.22;;;;;;;;;;10550688;28;20047;-75
2023/06/05 22:04:47;;;;;;;14.18;6.55;;;;;;;;;;10552704;28;20131;-75
2023/06/05 22:09:50;;;;;;;11.35;6.72;;;;;;;;;;10555735;28;20032;-76
2023/06/05 22:14:54;;;;;;;12.50;6.53;;;;;;;;;;10557178;28;20130;-76
2023/06/05 22:20:06;;;;;;;9.77;4.95;;;;;;;;;;10555422;28;20106;-76
2023/06/05 22:25:09;;;;;;;9.82;4.95;;;;;;;;;;10551677;28;20354;-76
2023/06/05 22:30:11;;;;;;;11.93;5.65;;;;;;;;;;10551920;28;20061;-76
2023/06/05 22:35:15;;;;;;;9.88;5.50;;;;;;;;;;10567243;27;20048;-76
2023/06/05 22:40:18;;;;;;;11.98;5.32;;;;;;;;;;10555340;28;20170;-75
2023/06/05 22:45:21;;;;;;;12.13;6.15;;;;;;;;;;10550095;28;20055;-75
2023/06/05 22:50:26;;;;;;;15.93;7.33;;;;;;;;;;10552366;28;20145;-76
2023/06/05 22:55:30;;;;;;;14.52;6.18;;;;;;;;;;10553132;28;20059;-76
2023/06/05 23:00:33;;;;;;;12.43;6.15;;;;;;;;;;10550447;28;20062;-77
2023/06/05 23:05:37;;;;;;;11.25;5.28;;;;;;;;;;10552281;28;20040;-76
2023/06/05 23:10:40;;;;;;;13.43;5.95;;;;;;;;;;10555430;28;20047;-76
2023/06/05 23:15:44;;;;;;;12.95;6.30;;;;;;;;;;10551372;28;20046;-76
2023/06/05 23:20:48;;;;;;;13.95;7.00;;;;;;;;;;10552545;28;20404;-75
2023/06/05 23:25:51;;;;;;;12.65;6.03;;;;;;;;;;10553036;28;20078;-76
2023/06/05 23:30:53;;;;;;;14.18;6.32;;;;;;;;;;10555148;28;20182;-75
2023/06/05 23:35:57;;;;;;;14.75;6.75;;;;;;;;;;10546033;28;20162;-75
2023/06/05 23:41:00;;;;;;;13.23;6.55;;;;;;;;;;10549795;28;20043;-76
2023/06/05 23:46:03;;;;;;;13.50;6.53;;;;;;;;;;10554005;28;20044;-76
2023/06/05 23:51:07;;;;;;;15.23;7.50;;;;;;;;;;10549307;28;20101;-75
2023/06/05 23:56:09;;;;;;;13.73;6.65;;;;;;;;;;10546620;28;20545;-75
